sensor_id;sensor_type;location;lat;lon;timestamp;P1;durP1;ratioP1;P2;durP2;ratioP2
60869;SDS011;46710;43.680;4.132;2023-02-18T00:00:56;2.50;;;2.28;;
60869;SDS011;46710;43.680;4.132;2023-02-18T00:03:23;3.92;;;2.28;;
60869;SDS011;46710;43.680;4.132;2023-02-18T00:05:49;7.12;;;3.25;;
60869;SDS011;46710;43.680;4.132;2023-02-18T00:08:15;6.22;;;3.28;;
60869;SDS011;46710;43.680;4.132;2023-02-18T00:10:41;2.97;;;2.42;;
60869;SDS011;46710;43.680;4.132;2023-02-18T00:13:07;5.75;;;2.40;;
60869;SDS011;46710;43.680;4.132;2023-02-18T00:15:36;6.05;;;3.72;;
60869;SDS011;46710;43.680;4.132;2023-02-18T00:18:03;4.62;;;3.37;;
60869;SDS011;46710;43.680;4.132;2023-02-18T00:20:29;8.35;;;2.55;;
60869;SDS011;46710;43.680;4.132;2023-02-18T00:22:57;5.70;;;3.10;;
60869;SDS011;46710;43.680;4.132;2023-02-18T00:25:24;4.75;;;2.92;;
60869;SDS011;46710;43.680;4.132;2023-02-18T00:27:50;7.65;;;2.53;;
60869;SDS011;46710;43.680;4.132;2023-02-18T00:30:16;5.25;;;2.92;;
60869;SDS011;46710;43.680;4.132;2023-02-18T00:32:42;9.57;;;5.37;;
60869;SDS011;46710;43.680;4.132;2023-02-18T00:35:08;5.95;;;2.20;;
60869;SDS011;46710;43.680;4.132;2023-02-18T00:37:34;4.50;;;3.45;;
60869;SDS011;46710;43.680;4.132;2023-02-18T00:40:00;4.22;;;3.00;;
60869;SDS011;46710;43.680;4.132;2023-02-18T00:42:26;4.37;;;3.08;;
60869;SDS011;46710;43.680;4.132;2023-02-18T00:44:53;4.87;;;3.08;;
60869;SDS011;46710;43.680;4.132;2023-02-18T00:47:19;11.88;;;3.70;;
60869;SDS011;46710;43.680;4.132;2023-02-18T00:49:45;3.58;;;2.87;;
60869;SDS011;46710;43.680;4.132;2023-02-18T00:52:11;5.75;;;3.47;;
60869;SDS011;46710;43.680;4.132;2023-02-18T00:54:37;4.45;;;3.35;;
60869;SDS011;46710;43.680;4.132;2023-02-18T00:57:03;6.03;;;3.22;;
60869;SDS011;46710;43.680;4.132;2023-02-18T00:59:30;4.45;;;3.55;;
60869;SDS011;46710;43.680;4.132;2023-02-18T01:01:56;7.07;;;2.70;;
60869;SDS011;46710;43.680;4.132;2023-02-18T01:04:22;4.28;;;3.40;;
60869;SDS011;46710;43.680;4.132;2023-02-18T01:06:48;4.93;;;2.60;;
60869;SDS011;46710;43.680;4.132;2023-02-18T01:09:14;2.72;;;2.50;;
60869;SDS011;46710;43.680;4.132;2023-02-18T01:11:40;3.25;;;2.95;;
60869;SDS011;46710;43.680;4.132;2023-02-18T01:14:06;5.30;;;3.42;;
60869;SDS011;46710;43.680;4.132;2023-02-18T01:16:32;5.37;;;3.50;;
60869;SDS011;46710;43.680;4.132;2023-02-18T01:18:58;2.50;;;2.33;;
60869;SDS011;46710;43.680;4.132;2023-02-18T01:21:25;3.62;;;3.33;;
60869;SDS011;46710;43.680;4.132;2023-02-18T01:23:51;5.35;;;4.18;;
60869;SDS011;46710;43.680;4.132;2023-02-18T01:26:17;6.60;;;2.25;;
60869;SDS011;46710;43.680;4.132;2023-02-18T01:28:43;9.35;;;4.47;;
60869;SDS011;46710;43.680;4.132;2023-02-18T01:31:10;2.22;;;2.10;;
60869;SDS011;46710;43.680;4.132;2023-02-18T01:33:36;2.67;;;2.47;;
60869;SDS011;46710;43.680;4.132;2023-02-18T01:36:03;8.07;;;3.30;;
60869;SDS011;46710;43.680;4.132;2023-02-18T01:38:29;6.78;;;3.70;;
60869;SDS011;46710;43.680;4.132;2023-02-18T01:40:55;4.62;;;2.85;;
60869;SDS011;46710;43.680;4.132;2023-02-18T01:43:22;5.35;;;3.10;;
60869;SDS011;46710;43.680;4.132;2023-02-18T01:45:50;10.23;;;3.28;;
60869;SDS011;46710;43.680;4.132;2023-02-18T01:48:19;7.43;;;3.85;;
60869;SDS011;46710;43.680;4.132;2023-02-18T01:50:47;4.55;;;2.97;;
60869;SDS011;46710;43.680;4.132;2023-02-18T01:53:15;3.03;;;2.78;;
60869;SDS011;46710;43.680;4.132;2023-02-18T01:55:42;9.48;;;3.25;;
60869;SDS011;46710;43.680;4.132;2023-02-18T01:58:09;7.95;;;4.43;;
60869;SDS011;46710;43.680;4.132;2023-02-18T02:00:36;7.07;;;3.72;;
60869;SDS011;46710;43.680;4.132;2023-02-18T02:03:02;9.75;;;3.60;;
60869;SDS011;46710;43.680;4.132;2023-02-18T02:05:30;4.45;;;2.70;;
60869;SDS011;46710;43.680;4.132;2023-02-18T02:07:56;6.53;;;4.00;;
60869;SDS011;46710;43.680;4.132;2023-02-18T02:10:22;8.68;;;2.67;;
60869;SDS011;46710;43.680;4.132;2023-02-18T02:13:04;11.88;;;3.08;;
60869;SDS011;46710;43.680;4.132;2023-02-18T02:16:07;2.53;;;2.33;;
60869;SDS011;46710;43.680;4.132;2023-02-18T02:18:28;3.20;;;2.90;;
60869;SDS011;46710;43.680;4.132;2023-02-18T02:26:20;6.10;;;4.55;;
60869;SDS011;46710;43.680;4.132;2023-02-18T02:36:26;4.45;;;2.35;;
60869;SDS011;46710;43.680;4.132;2023-02-18T02:39:19;5.07;;;2.65;;
60869;SDS011;46710;43.680;4.132;2023-02-18T02:41:44;12.07;;;5.62;;
60869;SDS011;46710;43.680;4.132;2023-02-18T02:44:22;11.15;;;3.30;;
60869;SDS011;46710;43.680;4.132;2023-02-18T02:46:54;10.90;;;6.62;;
60869;SDS011;46710;43.680;4.132;2023-02-18T02:49:32;8.43;;;4.80;;
60869;SDS011;46710;43.680;4.132;2023-02-18T02:52:13;4.20;;;3.58;;
60869;SDS011;46710;43.680;4.132;2023-02-18T02:54:40;2.45;;;2.03;;
60869;SDS011;46710;43.680;4.132;2023-02-18T02:59:40;1.73;;;1.62;;
60869;SDS011;46710;43.680;4.132;2023-02-18T03:10:07;6.95;;;3.15;;
60869;SDS011;46710;43.680;4.132;2023-02-18T03:12:39;3.87;;;3.10;;
60869;SDS011;46710;43.680;4.132;2023-02-18T03:15:19;2.05;;;1.77;;
60869;SDS011;46710;43.680;4.132;2023-02-18T03:20:23;4.65;;;2.60;;
60869;SDS011;46710;43.680;4.132;2023-02-18T03:22:51;6.10;;;2.08;;
60869;SDS011;46710;43.680;4.132;2023-02-18T03:25:18;4.60;;;2.85;;
60869;SDS011;46710;43.680;4.132;2023-02-18T03:27:48;2.85;;;1.77;;
60869;SDS011;46710;43.680;4.132;2023-02-18T03:30:16;4.37;;;2.30;;
60869;SDS011;46710;43.680;4.132;2023-02-18T03:32:46;2.53;;;2.33;;
60869;SDS011;46710;43.680;4.132;2023-02-18T03:35:15;22.65;;;4.40;;
60869;SDS011;46710;43.680;4.132;2023-02-18T03:37:47;4.78;;;2.37;;
60869;SDS011;46710;43.680;4.132;2023-02-18T03:40:14;1.62;;;1.30;;
60869;SDS011;46710;43.680;4.132;2023-02-18T03:42:42;4.35;;;1.80;;
60869;SDS011;46710;43.680;4.132;2023-02-18T03:45:08;4.72;;;2.17;;
60869;SDS011;46710;43.680;4.132;2023-02-18T03:47:34;2.97;;;2.72;;
60869;SDS011;46710;43.680;4.132;2023-02-18T03:50:00;1.52;;;1.45;;
60869;SDS011;46710;43.680;4.132;2023-02-18T03:52:26;13.40;;;1.25;;
60869;SDS011;46710;43.680;4.132;2023-02-18T03:54:52;2.50;;;1.60;;
60869;SDS011;46710;43.680;4.132;2023-02-18T03:57:19;7.28;;;1.95;;
60869;SDS011;46710;43.680;4.132;2023-02-18T03:59:45;3.05;;;2.33;;
60869;SDS011;46710;43.680;4.132;2023-02-18T04:02:11;2.55;;;1.87;;
60869;SDS011;46710;43.680;4.132;2023-02-18T04:04:37;1.75;;;1.65;;
60869;SDS011;46710;43.680;4.132;2023-02-18T04:07:03;1.52;;;1.45;;
60869;SDS011;46710;43.680;4.132;2023-02-18T04:09:29;3.10;;;2.25;;
60869;SDS011;46710;43.680;4.132;2023-02-18T04:11:55;0.93;;;0.93;;
60869;SDS011;46710;43.680;4.132;2023-02-18T04:14:21;1.55;;;1.10;;
60869;SDS011;46710;43.680;4.132;2023-02-18T04:16:47;2.30;;;1.52;;
60869;SDS011;46710;43.680;4.132;2023-02-18T04:19:14;4.80;;;2.10;;
60869;SDS011;46710;43.680;4.132;2023-02-18T04:21:40;2.17;;;1.83;;
60869;SDS011;46710;43.680;4.132;2023-02-18T04:24:06;1.73;;;1.42;;
60869;SDS011;46710;43.680;4.132;2023-02-18T04:26:32;6.03;;;2.87;;
60869;SDS011;46710;43.680;4.132;2023-02-18T04:28:58;2.97;;;1.20;;
60869;SDS011;46710;43.680;4.132;2023-02-18T04:31:24;0.85;;;0.85;;
60869;SDS011;46710;43.680;4.132;2023-02-18T04:33:50;3.40;;;2.08;;
60869;SDS011;46710;43.680;4.132;2023-02-18T04:36:16;0.90;;;0.90;;
60869;SDS011;46710;43.680;4.132;2023-02-18T04:38:42;1.20;;;1.10;;
60869;SDS011;46710;43.680;4.132;2023-02-18T04:41:09;3.22;;;1.95;;
60869;SDS011;46710;43.680;4.132;2023-02-18T04:43:36;0.62;;;0.62;;
60869;SDS011;46710;43.680;4.132;2023-02-18T04:46:03;3.65;;;1.65;;
60869;SDS011;46710;43.680;4.132;2023-02-18T04:48:29;2.12;;;1.83;;
60869;SDS011;46710;43.680;4.132;2023-02-18T04:50:55;1.33;;;0.75;;
60869;SDS011;46710;43.680;4.132;2023-02-18T04:53:22;1.83;;;1.73;;
60869;SDS011;46710;43.680;4.132;2023-02-18T04:55:48;2.22;;;1.30;;
60869;SDS011;46710;43.680;4.132;2023-02-18T04:58:15;1.10;;;1.02;;
60869;SDS011;46710;43.680;4.132;2023-02-18T05:00:41;1.80;;;0.90;;
60869;SDS011;46710;43.680;4.132;2023-02-18T05:03:08;1.23;;;1.08;;
60869;SDS011;46710;43.680;4.132;2023-02-18T05:05:34;6.32;;;1.75;;
60869;SDS011;46710;43.680;4.132;2023-02-18T05:08:00;0.77;;;0.77;;
60869;SDS011;46710;43.680;4.132;2023-02-18T05:10:26;1.48;;;1.30;;
60869;SDS011;46710;43.680;4.132;2023-02-18T05:12:52;2.35;;;1.50;;
60869;SDS011;46710;43.680;4.132;2023-02-18T05:15:18;3.70;;;1.33;;
60869;SDS011;46710;43.680;4.132;2023-02-18T05:17:44;1.40;;;0.98;;
60869;SDS011;46710;43.680;4.132;2023-02-18T05:20:11;1.35;;;1.17;;
60869;SDS011;46710;43.680;4.132;2023-02-18T05:22:37;1.05;;;1.00;;
60869;SDS011;46710;43.680;4.132;2023-02-18T05:25:04;2.28;;;1.15;;
60869;SDS011;46710;43.680;4.132;2023-02-18T05:27:30;2.50;;;1.27;;
60869;SDS011;46710;43.680;4.132;2023-02-18T05:29:56;1.40;;;1.30;;
60869;SDS011;46710;43.680;4.132;2023-02-18T05:32:22;0.65;;;0.65;;
60869;SDS011;46710;43.680;4.132;2023-02-18T05:34:49;2.30;;;1.20;;
60869;SDS011;46710;43.680;4.132;2023-02-18T05:37:15;6.50;;;2.20;;
60869;SDS011;46710;43.680;4.132;2023-02-18T05:39:42;5.07;;;0.77;;
60869;SDS011;46710;43.680;4.132;2023-02-18T05:42:09;1.73;;;1.62;;
60869;SDS011;46710;43.680;4.132;2023-02-18T05:44:35;2.22;;;1.37;;
60869;SDS011;46710;43.680;4.132;2023-02-18T05:47:03;1.10;;;1.00;;
60869;SDS011;46710;43.680;4.132;2023-02-18T05:49:30;1.95;;;1.17;;
60869;SDS011;46710;43.680;4.132;2023-02-18T05:51:56;1.52;;;1.42;;
60869;SDS011;46710;43.680;4.132;2023-02-18T05:54:23;0.73;;;0.70;;
60869;SDS011;46710;43.680;4.132;2023-02-18T05:56:49;0.75;;;0.73;;
60869;SDS011;46710;43.680;4.132;2023-02-18T05:59:15;8.45;;;2.35;;
60869;SDS011;46710;43.680;4.132;2023-02-18T06:01:42;1.30;;;1.12;;
60869;SDS011;46710;43.680;4.132;2023-02-18T06:04:08;1.23;;;1.12;;
60869;SDS011;46710;43.680;4.132;2023-02-18T06:06:34;2.22;;;1.70;;
60869;SDS011;46710;43.680;4.132;2023-02-18T06:09:00;2.10;;;1.80;;
60869;SDS011;46710;43.680;4.132;2023-02-18T06:11:26;1.58;;;0.60;;
60869;SDS011;46710;43.680;4.132;2023-02-18T06:13:52;1.62;;;1.30;;
60869;SDS011;46710;43.680;4.132;2023-02-18T06:16:19;1.37;;;1.27;;
60869;SDS011;46710;43.680;4.132;2023-02-18T06:18:45;1.95;;;1.75;;
60869;SDS011;46710;43.680;4.132;2023-02-18T06:21:11;0.98;;;0.93;;
60869;SDS011;46710;43.680;4.132;2023-02-18T06:23:37;1.20;;;0.88;;
60869;SDS011;46710;43.680;4.132;2023-02-18T06:26:03;6.47;;;1.00;;
60869;SDS011;46710;43.680;4.132;2023-02-18T06:28:29;1.23;;;1.15;;
60869;SDS011;46710;43.680;4.132;2023-02-18T06:30:55;2.83;;;1.45;;
60869;SDS011;46710;43.680;4.132;2023-02-18T06:33:22;1.60;;;1.40;;
60869;SDS011;46710;43.680;4.132;2023-02-18T06:35:51;2.42;;;1.62;;
60869;SDS011;46710;43.680;4.132;2023-02-18T06:38:18;3.75;;;1.42;;
60869;SDS011;46710;43.680;4.132;2023-02-18T06:40:45;2.40;;;1.52;;
60869;SDS011;46710;43.680;4.132;2023-02-18T06:43:11;1.30;;;1.10;;
60869;SDS011;46710;43.680;4.132;2023-02-18T06:45:38;0.75;;;0.75;;
60869;SDS011;46710;43.680;4.132;2023-02-18T06:48:04;2.92;;;1.55;;
60869;SDS011;46710;43.680;4.132;2023-02-18T06:50:30;2.40;;;1.62;;
60869;SDS011;46710;43.680;4.132;2023-02-18T06:52:57;1.30;;;1.20;;
60869;SDS011;46710;43.680;4.132;2023-02-18T06:55:23;1.30;;;1.23;;
60869;SDS011;46710;43.680;4.132;2023-02-18T06:57:50;2.58;;;1.08;;
60869;SDS011;46710;43.680;4.132;2023-02-18T07:00:16;1.40;;;1.30;;
60869;SDS011;46710;43.680;4.132;2023-02-18T07:02:42;3.67;;;1.35;;
60869;SDS011;46710;43.680;4.132;2023-02-18T07:05:08;2.83;;;1.85;;
60869;SDS011;46710;43.680;4.132;2023-02-18T07:07:35;0.65;;;0.65;;
60869;SDS011;46710;43.680;4.132;2023-02-18T07:10:01;1.25;;;0.77;;
60869;SDS011;46710;43.680;4.132;2023-02-18T07:12:27;0.62;;;0.62;;
60869;SDS011;46710;43.680;4.132;2023-02-18T07:14:53;4.82;;;1.83;;
60869;SDS011;46710;43.680;4.132;2023-02-18T07:17:19;1.37;;;1.10;;
60869;SDS011;46710;43.680;4.132;2023-02-18T07:19:46;0.90;;;0.65;;
60869;SDS011;46710;43.680;4.132;2023-02-18T07:22:12;8.15;;;1.65;;
60869;SDS011;46710;43.680;4.132;2023-02-18T07:24:38;3.50;;;1.25;;
60869;SDS011;46710;43.680;4.132;2023-02-18T07:27:04;0.75;;;0.75;;
60869;SDS011;46710;43.680;4.132;2023-02-18T07:29:30;2.25;;;2.05;;
60869;SDS011;46710;43.680;4.132;2023-02-18T07:31:56;1.98;;;1.48;;
60869;SDS011;46710;43.680;4.132;2023-02-18T07:34:22;0.80;;;0.80;;
60869;SDS011;46710;43.680;4.132;2023-02-18T07:36:48;0.98;;;0.60;;
60869;SDS011;46710;43.680;4.132;2023-02-18T07:39:14;2.17;;;1.37;;
60869;SDS011;46710;43.680;4.132;2023-02-18T07:41:44;2.15;;;1.08;;
60869;SDS011;46710;43.680;4.132;2023-02-18T07:44:11;1.77;;;1.62;;
60869;SDS011;46710;43.680;4.132;2023-02-18T07:46:40;0.62;;;0.62;;
60869;SDS011;46710;43.680;4.132;2023-02-18T07:49:06;2.15;;;1.60;;
60869;SDS011;46710;43.680;4.132;2023-02-18T07:51:33;2.42;;;2.15;;
60869;SDS011;46710;43.680;4.132;2023-02-18T07:53:59;2.10;;;1.87;;
60869;SDS011;46710;43.680;4.132;2023-02-18T07:56:25;1.70;;;1.33;;
60869;SDS011;46710;43.680;4.132;2023-02-18T07:58:52;1.37;;;1.10;;
60869;SDS011;46710;43.680;4.132;2023-02-18T08:01:18;2.10;;;1.87;;
60869;SDS011;46710;43.680;4.132;2023-02-18T08:03:44;2.30;;;2.10;;
60869;SDS011;46710;43.680;4.132;2023-02-18T08:06:20;1.10;;;1.00;;
60869;SDS011;46710;43.680;4.132;2023-02-18T08:08:47;1.10;;;1.00;;
60869;SDS011;46710;43.680;4.132;2023-02-18T08:11:13;0.57;;;0.57;;
60869;SDS011;46710;43.680;4.132;2023-02-18T08:13:39;7.90;;;2.10;;
60869;SDS011;46710;43.680;4.132;2023-02-18T08:16:05;0.90;;;0.77;;
60869;SDS011;46710;43.680;4.132;2023-02-18T08:18:31;0.62;;;0.62;;
60869;SDS011;46710;43.680;4.132;2023-02-18T08:20:57;2.05;;;0.77;;
60869;SDS011;46710;43.680;4.132;2023-02-18T08:23:23;2.00;;;1.58;;
60869;SDS011;46710;43.680;4.132;2023-02-18T08:25:51;1.23;;;1.15;;
60869;SDS011;46710;43.680;4.132;2023-02-18T08:28:18;0.95;;;0.93;;
60869;SDS011;46710;43.680;4.132;2023-02-18T08:30:44;0.43;;;0.43;;
60869;SDS011;46710;43.680;4.132;2023-02-18T08:33:11;0.68;;;0.68;;
60869;SDS011;46710;43.680;4.132;2023-02-18T08:35:37;1.87;;;0.77;;
60869;SDS011;46710;43.680;4.132;2023-02-18T08:38:03;0.62;;;0.62;;
60869;SDS011;46710;43.680;4.132;2023-02-18T08:40:29;0.95;;;0.60;;
60869;SDS011;46710;43.680;4.132;2023-02-18T08:42:55;0.50;;;0.47;;
60869;SDS011;46710;43.680;4.132;2023-02-18T08:45:21;1.25;;;1.12;;
60869;SDS011;46710;43.680;4.132;2023-02-18T08:47:47;0.50;;;0.50;;
60869;SDS011;46710;43.680;4.132;2023-02-18T08:50:14;1.27;;;1.17;;
60869;SDS011;46710;43.680;4.132;2023-02-18T08:52:40;2.47;;;1.50;;
60869;SDS011;46710;43.680;4.132;2023-02-18T08:55:06;0.45;;;0.30;;
60869;SDS011;46710;43.680;4.132;2023-02-18T08:57:32;0.43;;;0.43;;
60869;SDS011;46710;43.680;4.132;2023-02-18T08:59:58;1.15;;;1.08;;
60869;SDS011;46710;43.680;4.132;2023-02-18T09:02:24;1.35;;;0.50;;
60869;SDS011;46710;43.680;4.132;2023-02-18T09:04:53;5.55;;;2.10;;
60869;SDS011;46710;43.680;4.132;2023-02-18T09:07:19;1.85;;;1.52;;
60869;SDS011;46710;43.680;4.132;2023-02-18T09:09:45;1.05;;;1.02;;
60869;SDS011;46710;43.680;4.132;2023-02-18T09:12:11;1.50;;;1.15;;
60869;SDS011;46710;43.680;4.132;2023-02-18T09:14:37;1.27;;;0.52;;
60869;SDS011;46710;43.680;4.132;2023-02-18T09:17:03;10.38;;;0.88;;
60869;SDS011;46710;43.680;4.132;2023-02-18T09:19:29;0.70;;;0.70;;
60869;SDS011;46710;43.680;4.132;2023-02-18T09:21:55;1.90;;;1.27;;
60869;SDS011;46710;43.680;4.132;2023-02-18T09:24:22;1.77;;;0.90;;
60869;SDS011;46710;43.680;4.132;2023-02-18T09:26:49;0.77;;;0.77;;
60869;SDS011;46710;43.680;4.132;2023-02-18T09:29:15;0.50;;;0.50;;
60869;SDS011;46710;43.680;4.132;2023-02-18T09:31:43;0.57;;;0.57;;
60869;SDS011;46710;43.680;4.132;2023-02-18T09:34:10;2.75;;;1.20;;
60869;SDS011;46710;43.680;4.132;2023-02-18T09:36:37;0.77;;;0.77;;
60869;SDS011;46710;43.680;4.132;2023-02-18T09:39:04;1.00;;;0.90;;
60869;SDS011;46710;43.680;4.132;2023-02-18T09:44:00;1.45;;;1.20;;
60869;SDS011;46710;43.680;4.132;2023-02-18T09:46:31;1.58;;;1.48;;
60869;SDS011;46710;43.680;4.132;2023-02-18T09:49:00;1.27;;;1.17;;
60869;SDS011;46710;43.680;4.132;2023-02-18T09:51:27;1.98;;;1.87;;
60869;SDS011;46710;43.680;4.132;2023-02-18T09:53:54;1.50;;;1.40;;
60869;SDS011;46710;43.680;4.132;2023-02-18T09:56:27;6.37;;;1.92;;
60869;SDS011;46710;43.680;4.132;2023-02-18T09:58:54;5.28;;;1.90;;
60869;SDS011;46710;43.680;4.132;2023-02-18T10:01:32;7.80;;;2.85;;
60869;SDS011;46710;43.680;4.132;2023-02-18T10:04:02;4.32;;;2.12;;
60869;SDS011;46710;43.680;4.132;2023-02-18T10:06:30;4.25;;;1.80;;
60869;SDS011;46710;43.680;4.132;2023-02-18T10:08:59;1.05;;;1.02;;
60869;SDS011;46710;43.680;4.132;2023-02-18T10:11:40;2.40;;;1.60;;
60869;SDS011;46710;43.680;4.132;2023-02-18T10:14:10;1.62;;;1.23;;
60869;SDS011;46710;43.680;4.132;2023-02-18T10:16:37;1.67;;;1.30;;
60869;SDS011;46710;43.680;4.132;2023-02-18T10:19:04;1.83;;;1.60;;
60869;SDS011;46710;43.680;4.132;2023-02-18T10:21:34;1.60;;;1.42;;
60869;SDS011;46710;43.680;4.132;2023-02-18T10:24:02;1.23;;;1.12;;
60869;SDS011;46710;43.680;4.132;2023-02-18T10:26:30;1.08;;;0.70;;
60869;SDS011;46710;43.680;4.132;2023-02-18T10:28:58;0.68;;;0.68;;
60869;SDS011;46710;43.680;4.132;2023-02-18T10:31:27;1.23;;;0.93;;
60869;SDS011;46710;43.680;4.132;2023-02-18T10:41:33;0.82;;;0.82;;
60869;SDS011;46710;43.680;4.132;2023-02-18T10:46:40;1.85;;;1.50;;
60869;SDS011;46710;43.680;4.132;2023-02-18T10:49:23;5.03;;;1.90;;
60869;SDS011;46710;43.680;4.132;2023-02-18T10:51:55;1.25;;;0.98;;
60869;SDS011;46710;43.680;4.132;2023-02-18T10:54:23;1.58;;;1.23;;
60869;SDS011;46710;43.680;4.132;2023-02-18T10:56:51;0.73;;;0.73;;
60869;SDS011;46710;43.680;4.132;2023-02-18T10:59:18;5.32;;;1.37;;
60869;SDS011;46710;43.680;4.132;2023-02-18T11:01:45;0.40;;;0.40;;
60869;SDS011;46710;43.680;4.132;2023-02-18T11:04:18;3.30;;;0.90;;
60869;SDS011;46710;43.680;4.132;2023-02-18T11:06:46;0.70;;;0.70;;
60869;SDS011;46710;43.680;4.132;2023-02-18T11:11:51;1.05;;;0.95;;
60869;SDS011;46710;43.680;4.132;2023-02-18T11:17:26;2.97;;;0.80;;
60869;SDS011;46710;43.680;4.132;2023-02-18T11:19:57;1.20;;;1.20;;
60869;SDS011;46710;43.680;4.132;2023-02-18T11:22:25;0.65;;;0.62;;
60869;SDS011;46710;43.680;4.132;2023-02-18T11:24:54;1.65;;;1.23;;
60869;SDS011;46710;43.680;4.132;2023-02-18T11:27:21;2.22;;;0.95;;
60869;SDS011;46710;43.680;4.132;2023-02-18T11:29:58;0.88;;;0.80;;
60869;SDS011;46710;43.680;4.132;2023-02-18T11:32:26;1.23;;;1.00;;
60869;SDS011;46710;43.680;4.132;2023-02-18T11:34:53;0.50;;;0.50;;
60869;SDS011;46710;43.680;4.132;2023-02-18T11:37:19;2.37;;;1.30;;
60869;SDS011;46710;43.680;4.132;2023-02-18T11:39:47;0.55;;;0.55;;
60869;SDS011;46710;43.680;4.132;2023-02-18T11:42:15;1.45;;;1.30;;
60869;SDS011;46710;43.680;4.132;2023-02-18T11:45:03;0.60;;;0.60;;
60869;SDS011;46710;43.680;4.132;2023-02-18T11:47:35;0.73;;;0.70;;
60869;SDS011;46710;43.680;4.132;2023-02-18T11:52:35;1.65;;;1.10;;
60869;SDS011;46710;43.680;4.132;2023-02-18T11:55:04;0.57;;;0.57;;
60869;SDS011;46710;43.680;4.132;2023-02-18T11:57:33;2.37;;;1.17;;
60869;SDS011;46710;43.680;4.132;2023-02-18T12:00:00;0.80;;;0.80;;
60869;SDS011;46710;43.680;4.132;2023-02-18T12:02:29;1.00;;;1.00;;
60869;SDS011;46710;43.680;4.132;2023-02-18T12:05:19;0.75;;;0.75;;
60869;SDS011;46710;43.680;4.132;2023-02-18T12:07:47;0.60;;;0.60;;
60869;SDS011;46710;43.680;4.132;2023-02-18T12:10:27;1.87;;;1.40;;
60869;SDS011;46710;43.680;4.132;2023-02-18T12:12:57;1.65;;;1.52;;
60869;SDS011;46710;43.680;4.132;2023-02-18T12:15:47;0.80;;;0.70;;
60869;SDS011;46710;43.680;4.132;2023-02-18T12:18:25;0.70;;;0.57;;
60869;SDS011;46710;43.680;4.132;2023-02-18T12:23:37;2.72;;;1.25;;
60869;SDS011;46710;43.680;4.132;2023-02-18T12:34:03;0.80;;;0.80;;
60869;SDS011;46710;43.680;4.132;2023-02-18T12:46:57;1.48;;;1.30;;
60869;SDS011;46710;43.680;4.132;2023-02-18T13:04:58;0.90;;;0.90;;
60869;SDS011;46710;43.680;4.132;2023-02-18T13:10:05;1.00;;;0.90;;
60869;SDS011;46710;43.680;4.132;2023-02-18T13:18:36;1.48;;;1.00;;
60869;SDS011;46710;43.680;4.132;2023-02-18T13:21:05;1.08;;;1.02;;
60869;SDS011;46710;43.680;4.132;2023-02-18T13:23:54;0.57;;;0.57;;
60869;SDS011;46710;43.680;4.132;2023-02-18T13:26:18;0.65;;;0.65;;
60869;SDS011;46710;43.680;4.132;2023-02-18T13:39:18;2.85;;;1.60;;
60869;SDS011;46710;43.680;4.132;2023-02-18T13:41:47;0.65;;;0.65;;
60869;SDS011;46710;43.680;4.132;2023-02-18T13:49:14;1.35;;;1.25;;
60869;SDS011;46710;43.680;4.132;2023-02-18T13:51:44;1.08;;;0.98;;
60869;SDS011;46710;43.680;4.132;2023-02-18T13:57:00;1.12;;;0.82;;
60869;SDS011;46710;43.680;4.132;2023-02-18T13:59:34;0.95;;;0.95;;
60869;SDS011;46710;43.680;4.132;2023-02-18T14:09:50;4.93;;;1.50;;
60869;SDS011;46710;43.680;4.132;2023-02-18T14:12:23;0.52;;;0.52;;
60869;SDS011;46710;43.680;4.132;2023-02-18T14:14:50;5.00;;;1.30;;
60869;SDS011;46710;43.680;4.132;2023-02-18T14:24:59;1.00;;;0.90;;
60869;SDS011;46710;43.680;4.132;2023-02-18T14:27:27;3.20;;;1.70;;
60869;SDS011;46710;43.680;4.132;2023-02-18T14:29:53;2.28;;;1.40;;
60869;SDS011;46710;43.680;4.132;2023-02-18T14:32:19;1.85;;;1.20;;
60869;SDS011;46710;43.680;4.132;2023-02-18T14:50:00;1.37;;;1.27;;
60869;SDS011;46710;43.680;4.132;2023-02-18T14:52:47;0.65;;;0.65;;
60869;SDS011;46710;43.680;4.132;2023-02-18T14:55:18;0.93;;;0.93;;
60869;SDS011;46710;43.680;4.132;2023-02-18T14:57:46;3.28;;;1.60;;
60869;SDS011;46710;43.680;4.132;2023-02-18T15:00:17;0.93;;;0.93;;
60869;SDS011;46710;43.680;4.132;2023-02-18T15:02:46;1.58;;;0.88;;
60869;SDS011;46710;43.680;4.132;2023-02-18T15:07:38;3.60;;;1.15;;
60869;SDS011;46710;43.680;4.132;2023-02-18T15:10:11;3.08;;;1.05;;
60869;SDS011;46710;43.680;4.132;2023-02-18T15:12:37;0.85;;;0.85;;
60869;SDS011;46710;43.680;4.132;2023-02-18T15:15:03;1.05;;;0.98;;
60869;SDS011;46710;43.680;4.132;2023-02-18T15:17:30;0.68;;;0.68;;
60869;SDS011;46710;43.680;4.132;2023-02-18T15:19:57;1.42;;;1.00;;
60869;SDS011;46710;43.680;4.132;2023-02-18T15:22:25;0.85;;;0.70;;
60869;SDS011;46710;43.680;4.132;2023-02-18T15:24:54;1.17;;;0.90;;
60869;SDS011;46710;43.680;4.132;2023-02-18T15:27:28;0.93;;;0.80;;
60869;SDS011;46710;43.680;4.132;2023-02-18T15:29:56;1.55;;;1.20;;
60869;SDS011;46710;43.680;4.132;2023-02-18T15:32:24;1.92;;;0.95;;
60869;SDS011;46710;43.680;4.132;2023-02-18T15:34:55;0.45;;;0.45;;
60869;SDS011;46710;43.680;4.132;2023-02-18T15:37:22;0.82;;;0.82;;
60869;SDS011;46710;43.680;4.132;2023-02-18T15:39:48;0.80;;;0.80;;
60869;SDS011;46710;43.680;4.132;2023-02-18T15:42:21;1.10;;;1.00;;
60869;SDS011;46710;43.680;4.132;2023-02-18T15:44:50;0.75;;;0.75;;
60869;SDS011;46710;43.680;4.132;2023-02-18T15:47:17;1.65;;;1.55;;
60869;SDS011;46710;43.680;4.132;2023-02-18T15:49:45;2.00;;;1.08;;
60869;SDS011;46710;43.680;4.132;2023-02-18T15:52:12;13.55;;;1.45;;
60869;SDS011;46710;43.680;4.132;2023-02-18T15:54:38;4.18;;;2.45;;
60869;SDS011;46710;43.680;4.132;2023-02-18T15:57:05;1.75;;;1.55;;
60869;SDS011;46710;43.680;4.132;2023-02-18T15:59:32;0.68;;;0.68;;
60869;SDS011;46710;43.680;4.132;2023-02-18T16:04:38;0.88;;;0.88;;
60869;SDS011;46710;43.680;4.132;2023-02-18T16:07:27;13.98;;;1.30;;
60869;SDS011;46710;43.680;4.132;2023-02-18T16:10:38;0.77;;;0.77;;
60869;SDS011;46710;43.680;4.132;2023-02-18T16:12:37;0.93;;;0.70;;
60869;SDS011;46710;43.680;4.132;2023-02-18T16:15:04;2.60;;;1.23;;
60869;SDS011;46710;43.680;4.132;2023-02-18T16:17:30;0.98;;;0.85;;
60869;SDS011;46710;43.680;4.132;2023-02-18T16:19:58;1.50;;;0.93;;
60869;SDS011;46710;43.680;4.132;2023-02-18T16:30:18;5.28;;;0.73;;
60869;SDS011;46710;43.680;4.132;2023-02-18T16:32:44;0.77;;;0.77;;
60869;SDS011;46710;43.680;4.132;2023-02-18T16:35:11;1.37;;;1.15;;
60869;SDS011;46710;43.680;4.132;2023-02-18T16:37:37;1.80;;;1.42;;
60869;SDS011;46710;43.680;4.132;2023-02-18T16:40:10;0.65;;;0.65;;
60869;SDS011;46710;43.680;4.132;2023-02-18T16:42:41;0.80;;;0.80;;
60869;SDS011;46710;43.680;4.132;2023-02-18T16:45:10;2.95;;;1.23;;
60869;SDS011;46710;43.680;4.132;2023-02-18T16:47:37;0.80;;;0.80;;
60869;SDS011;46710;43.680;4.132;2023-02-18T16:50:03;2.28;;;1.52;;
60869;SDS011;46710;43.680;4.132;2023-02-18T16:52:29;0.85;;;0.80;;
60869;SDS011;46710;43.680;4.132;2023-02-18T16:54:55;1.60;;;1.33;;
60869;SDS011;46710;43.680;4.132;2023-02-18T16:57:22;2.10;;;1.50;;
60869;SDS011;46710;43.680;4.132;2023-02-18T16:59:48;3.30;;;1.67;;
60869;SDS011;46710;43.680;4.132;2023-02-18T17:02:15;1.05;;;1.00;;
60869;SDS011;46710;43.680;4.132;2023-02-18T17:04:42;1.00;;;0.90;;
60869;SDS011;46710;43.680;4.132;2023-02-18T17:07:08;0.90;;;0.90;;
60869;SDS011;46710;43.680;4.132;2023-02-18T17:09:35;1.65;;;0.90;;
60869;SDS011;46710;43.680;4.132;2023-02-18T17:12:01;1.45;;;1.08;;
60869;SDS011;46710;43.680;4.132;2023-02-18T17:14:27;1.45;;;1.30;;
60869;SDS011;46710;43.680;4.132;2023-02-18T17:16:53;0.73;;;0.73;;
60869;SDS011;46710;43.680;4.132;2023-02-18T17:19:20;2.05;;;0.98;;
60869;SDS011;46710;43.680;4.132;2023-02-18T17:21:46;1.27;;;1.17;;
60869;SDS011;46710;43.680;4.132;2023-02-18T17:24:12;0.85;;;0.85;;
60869;SDS011;46710;43.680;4.132;2023-02-18T17:26:39;1.90;;;1.75;;